Time;durP1;ratioP1;P1;durP2;ratioP2;P2;SDS_P1;SDS_P2;PMS_P1;PMS_P2;Temp;Humidity;BMP_temperature;BMP_pressure;BME280_temperature;BME280_humidity;BME280_pressure;Samples;Min_cycle;Max_cycle;Signal;HPM_P1;HPM_P2
2023/03/18 05:04:29;;;;;;;3.03;2.75;;;8.70;99.90;;;;;;5758255;23;20299;-70
2023/03/18 05:06:55;;;;;;;4.93;2.73;;;8.70;99.90;;;;;;4955500;28;20663;-70
2023/03/18 05:09:20;;;;;;;3.97;3.10;;;8.70;99.90;;;;;;4955567;28;20192;-70
2023/03/18 05:11:46;;;;;;;2.60;2.40;;;8.60;99.90;;;;;;4956031;28;20455;-70
2023/03/18 05:14:12;;;;;;;3.10;2.90;;;8.60;99.90;;;;;;4955275;28;20231;-71
2023/03/18 05:16:38;;;;;;;3.22;2.90;;;8.60;99.90;;;;;;4954505;28;20603;-71
2023/03/18 05:19:03;;;;;;;2.87;2.63;;;8.50;99.90;;;;;;4955868;28;20169;-71
2023/03/18 05:21:29;;;;;;;2.90;2.70;;;8.40;99.90;;;;;;4954566;28;20216;-70
2023/03/18 05:23:55;;;;;;;6.00;3.47;;;8.30;99.90;;;;;;4955340;28;20184;-71
2023/03/18 05:26:20;;;;;;;4.03;3.77;;;8.30;99.90;;;;;;4954650;28;20576;-71
2023/03/18 05:28:46;;;;;;;2.07;1.80;;;8.20;99.90;;;;;;4955488;28;20165;-71
2023/03/18 05:31:12;;;;;;;4.50;2.90;;;8.20;99.90;;;;;;4955429;28;20168;-70
2023/03/18 05:33:37;;;;;;;2.60;2.00;;;8.20;99.90;;;;;;4954648;28;20423;-70
2023/03/18 05:36:03;;;;;;;3.70;3.00;;;8.20;99.90;;;;;;4955038;28;20168;-71
2023/03/18 05:38:29;;;;;;;2.97;2.67;;;8.10;99.90;;;;;;4954450;28;20703;-71
2023/03/18 05:40:55;;;;;;;3.90;2.53;;;8.10;99.90;;;;;;4954099;28;20460;-70
2023/03/18 05:43:20;;;;;;;3.70;3.40;;;8.10;99.90;;;;;;4955019;28;20187;-71
2023/03/18 05:45:47;;;;;;;3.17;2.70;;;8.00;99.90;;;;;;4955772;28;20275;-71
2023/03/18 05:48:13;;;;;;;4.90;2.78;;;8.00;99.90;;;;;;4955573;28;20160;-71
2023/03/18 05:50:41;;;;;;;3.43;3.13;;;7.90;99.90;;;;;;4955547;28;20199;-71
2023/03/18 05:53:08;;;;;;;3.35;3.08;;;7.90;99.90;;;;;;4954885;28;20778;-70
2023/03/18 05:55:34;;;;;;;3.20;2.90;;;7.80;99.90;;;;;;4955639;28;20550;-71
2023/03/18 05:58:00;;;;;;;4.78;2.70;;;7.80;99.90;;;;;;4955046;28;20200;-71
2023/03/18 06:00:29;;;;;;;2.80;2.27;;;7.80;99.90;;;;;;4948495;28;20246;-71
2023/03/18 06:02:59;;;;;;;2.72;2.53;;;7.80;99.90;;;;;;4942317;29;20184;-75
2023/03/18 06:05:25;;;;;;;3.38;2.60;;;7.80;99.90;;;;;;4951210;28;20290;-71
2023/03/18 06:07:52;;;;;;;2.60;2.40;;;7.80;99.90;;;;;;4955693;28;20168;-73
2023/03/18 06:10:19;;;;;;;2.58;2.38;;;7.80;99.90;;;;;;4953291;28;20196;-70
2023/03/18 06:12:45;;;;;;;2.88;2.67;;;7.90;99.90;;;;;;4938294;29;20182;-72
2023/03/18 06:15:12;;;;;;;2.90;2.17;;;7.90;99.90;;;;;;4934984;29;20201;-71
2023/03/18 06:17:38;;;;;;;2.85;2.55;;;7.90;99.90;;;;;;4940874;29;20234;-69
2023/03/18 06:20:07;;;;;;;2.20;2.10;;;8.00;99.90;;;;;;4955194;28;20295;-71
2023/03/18 06:22:34;;;;;;;4.25;2.80;;;8.00;99.90;;;;;;4955107;28;20171;-70
2023/03/18 06:25:00;;;;;;;2.38;2.20;;;8.00;99.90;;;;;;4954767;28;20615;-71
2023/03/18 06:27:25;;;;;;;3.07;2.23;;;8.10;99.90;;;;;;4954929;28;20312;-71
2023/03/18 06:29:54;;;;;;;3.30;2.90;;;8.20;99.90;;;;;;4955087;28;20416;-71
2023/03/18 06:32:20;;;;;;;4.00;2.92;;;8.20;99.90;;;;;;4954923;28;20430;-71
2023/03/18 06:34:46;;;;;;;6.93;3.60;;;8.20;99.90;;;;;;4953345;28;20678;-71
2023/03/18 06:37:11;;;;;;;3.73;2.70;;;8.30;99.90;;;;;;4953728;29;20264;-71
2023/03/18 06:39:37;;;;;;;2.80;2.30;;;8.30;99.90;;;;;;4954905;28;20201;-71
2023/03/18 06:42:03;;;;;;;3.90;2.27;;;8.40;99.90;;;;;;4954585;28;20248;-70
2023/03/18 06:44:29;;;;;;;4.20;2.58;;;8.50;99.90;;;;;;4957612;28;20188;-72
2023/03/18 06:46:55;;;;;;;2.33;2.20;;;8.70;99.90;;;;;;4953065;28;20239;-71
2023/03/18 06:49:22;;;;;;;2.33;2.20;;;9.00;99.90;;;;;;4956843;28;20256;-71
2023/03/18 06:51:48;;;;;;;2.42;2.22;;;9.30;99.90;;;;;;4958288;28;20184;-71
2023/03/18 06:54:14;;;;;;;1.67;1.67;;;9.70;99.90;;;;;;4956658;28;20196;-70
2023/03/18 06:56:40;;;;;;;3.20;2.63;;;9.90;99.90;;;;;;4958273;28;20416;-71
2023/03/18 06:59:08;;;;;;;3.22;2.95;;;10.00;99.90;;;;;;4957940;28;20176;-71
2023/03/18 07:01:35;;;;;;;3.22;2.42;;;10.20;99.90;;;;;;4957775;28;20211;-70
2023/03/18 07:04:02;;;;;;;2.38;2.15;;;10.30;99.90;;;;;;4956626;28;20678;-70
2023/03/18 07:06:29;;;;;;;2.95;2.65;;;10.30;99.90;;;;;;4958085;28;20299;-70
2023/03/18 07:08:55;;;;;;;2.42;2.25;;;10.30;99.90;;;;;;4956958;28;20611;-72
2023/03/18 07:11:21;;;;;;;2.70;2.50;;;10.30;99.90;;;;;;4950641;28;20660;-69
2023/03/18 07:13:47;;;;;;;2.30;2.10;;;10.40;99.90;;;;;;4939134;29;20209;-71
2023/03/18 07:16:13;;;;;;;2.40;2.17;;;10.70;99.90;;;;;;4955179;29;20186;-73
2023/03/18 07:18:39;;;;;;;2.23;2.03;;;11.30;99.90;;;;;;4957642;28;20426;-68
2023/03/18 07:21:05;;;;;;;2.63;2.43;;;12.10;99.90;;;;;;4947361;28;20211;-72
2023/03/18 07:23:31;;;;;;;2.80;2.60;;;13.00;99.90;;;;;;4955942;29;20504;-71
2023/03/18 07:25:57;;;;;;;2.97;2.77;;;13.90;99.90;;;;;;4957131;28;20440;-73
2023/03/18 07:28:24;;;;;;;3.10;2.90;;;15.00;97.80;;;;;;4957708;28;20172;-65
2023/03/18 07:30:50;;;;;;;5.23;3.07;;;15.90;96.00;;;;;;4957797;28;20460;-65
2023/03/18 07:33:16;;;;;;;2.53;2.33;;;16.60;94.50;;;;;;4957189;28;20479;-65
2023/03/18 07:35:42;;;;;;;3.07;2.83;;;17.40;93.50;;;;;;4957599;28;20508;-66
2023/03/18 07:38:08;;;;;;;2.47;2.37;;;18.00;91.90;;;;;;4956823;28;20437;-67
2023/03/18 07:40:35;;;;;;;2.77;2.57;;;18.60;90.80;;;;;;4957634;28;20604;-69
2023/03/18 07:43:01;;;;;;;2.80;2.60;;;19.10;90.10;;;;;;4957125;28;20460;-70
2023/03/18 07:45:28;;;;;;;3.13;2.83;;;19.50;86.50;;;;;;4957034;28;21048;-65
2023/03/18 07:47:53;;;;;;;8.40;3.77;;;19.80;86.50;;;;;;4957107;28;20181;-66
2023/03/18 07:50:19;;;;;;;8.40;2.67;;;20.50;85.30;;;;;;4957125;28;20406;-65
2023/03/18 07:52:44;;;;;;;3.43;3.00;;;21.20;82.30;;;;;;4956174;28;20190;-68
2023/03/18 07:55:11;;;;;;;2.83;2.60;;;21.70;80.40;;;;;;4956745;28;20200;-65
2023/03/18 07:57:37;;;;;;;3.50;2.83;;;22.10;78.40;;;;;;4956170;28;20184;-72
2023/03/18 08:00:07;;;;;;;3.83;3.40;;;22.50;77.40;;;;;;4957205;28;20839;-65
2023/03/18 08:02:34;;;;;;;2.80;2.60;;;22.90;73.10;;;;;;4938775;28;20392;-73
2023/03/18 08:05:00;;;;;;;2.87;2.67;;;23.20;71.70;;;;;;4945962;28;20455;-69
2023/03/18 08:07:26;;;;;;;3.70;3.30;;;23.50;71.60;;;;;;4956381;28;21532;-63
2023/03/18 08:09:52;;;;;;;4.30;2.93;;;23.90;68.70;;;;;;4956881;28;20408;-65
2023/03/18 08:12:18;;;;;;;2.90;2.63;;;24.20;68.30;;;;;;4955687;29;20264;-67
2023/03/18 08:14:43;;;;;;;3.37;3.07;;;24.40;65.00;;;;;;4954561;28;20197;-70
2023/03/18 08:17:09;;;;;;;3.37;3.07;;;24.40;66.60;;;;;;4956819;28;20885;-65
2023/03/18 08:19:35;;;;;;;3.47;3.17;;;24.60;65.30;;;;;;4956765;28;20228;-71
2023/03/18 08:22:01;;;;;;;3.70;3.40;;;24.80;65.40;;;;;;4956392;28;20212;-70
2023/03/18 08:24:27;;;;;;;3.47;3.17;;;25.30;64.30;;;;;;4955358;28;20929;-74
2023/03/18 08:26:52;;;;;;;3.43;3.00;;;25.50;62.90;;;;;;4955739;28;20196;-65
2023/03/18 08:29:18;;;;;;;2.40;2.30;;;25.70;62.40;;;;;;4956716;28;20207;-71
2023/03/18 08:31:44;;;;;;;5.17;2.60;;;26.10;62.20;;;;;;4953882;28;20706;-67
2023/03/18 08:34:10;;;;;;;2.90;2.70;;;26.60;59.70;;;;;;4953814;29;20247;-68
2023/03/18 08:36:36;;;;;;;3.73;3.43;;;26.90;57.80;;;;;;4955745;28;20801;-68
2023/03/18 08:39:02;;;;;;;2.73;2.40;;;26.90;57.30;;;;;;4954267;28;20177;-67
2023/03/18 08:41:28;;;;;;;2.70;2.50;;;27.00;57.20;;;;;;4954363;28;20228;-67
2023/03/18 08:43:56;;;;;;;2.80;2.47;;;27.40;56.70;;;;;;4953565;28;20484;-67
2023/03/18 08:46:22;;;;;;;2.60;2.40;;;27.50;56.00;;;;;;4953845;28;20209;-67
2023/03/18 08:48:47;;;;;;;3.27;2.97;;;27.90;55.90;;;;;;4954267;28;20789;-67
2023/03/18 08:51:13;;;;;;;3.20;3.00;;;28.20;55.50;;;;;;4952089;28;20456;-66
2023/03/18 08:53:39;;;;;;;2.77;2.57;;;28.40;54.90;;;;;;4945233;29;20181;-68
2023/03/18 08:56:06;;;;;;;3.53;3.23;;;28.40;54.40;;;;;;4956187;28;20177;-68
2023/03/18 08:58:32;;;;;;;2.10;1.83;;;28.50;53.30;;;;;;4955914;28;20181;-68
2023/03/18 09:00:58;;;;;;;2.07;1.87;;;28.70;51.60;;;;;;4951138;28;20425;-67
2023/03/18 09:03:24;;;;;;;2.57;2.23;;;28.80;51.40;;;;;;4936124;29;20715;-67
2023/03/18 09:05:52;;;;;;;2.87;2.57;;;29.00;50.60;;;;;;4934651;29;20547;-68
2023/03/18 09:08:17;;;;;;;1.70;1.60;;;29.40;50.40;;;;;;4946432;29;20181;-67
2023/03/18 09:10:46;;;;;;;4.90;4.23;;;30.00;48.90;;;;;;4953706;28;20527;-68
2023/03/18 09:13:12;;;;;;;2.30;2.10;;;30.20;48.30;;;;;;4954636;28;20231;-68
2023/03/18 09:15:39;;;;;;;2.57;1.80;;;30.10;49.10;;;;;;4955613;28;20468;-68
2023/03/18 09:18:05;;;;;;;2.27;1.80;;;30.10;48.80;;;;;;4954907;28;20195;-68
2023/03/18 09:20:32;;;;;;;1.70;1.63;;;30.20;47.80;;;;;;4955500;28;20495;-65
2023/03/18 09:22:58;;;;;;;2.00;1.50;;;30.40;47.40;;;;;;4954762;28;20175;-65
2023/03/18 09:25:24;;;;;;;1.60;1.37;;;30.10;47.10;;;;;;4951470;28;20441;-65
2023/03/18 09:27:50;;;;;;;1.70;1.27;;;29.80;46.70;;;;;;4950182;29;20491;-65
2023/03/18 09:30:16;;;;;;;1.73;1.43;;;29.60;47.00;;;;;;4954618;28;20575;-71
2023/03/18 09:32:43;;;;;;;1.33;1.20;;;29.90;46.90;;;;;;4952994;28;20409;-69
2023/03/18 09:35:09;;;;;;;2.87;1.80;;;29.90;46.50;;;;;;4944132;28;20539;-68
2023/03/18 09:37:36;;;;;;;1.30;1.20;;;29.60;46.70;;;;;;4954763;28;20472;-64
2023/03/18 09:40:03;;;;;;;1.90;1.63;;;29.40;46.40;;;;;;4952087;28;20785;-64
2023/03/18 09:42:56;;;;;;;2.33;2.13;;;29.50;47.90;;;;;;4954264;28;20852;-64
2023/03/18 09:45:31;;;;;;;1.80;1.70;;;30.10;46.30;;;;;;4955385;28;20485;-64
2023/03/18 09:48:34;;;;;;;2.50;2.30;;;30.20;46.70;;;;;;4954749;28;20443;-66
2023/03/18 09:51:25;;;;;;;1.87;1.77;;;30.10;45.90;;;;;;4954955;28;20464;-66
2023/03/18 09:53:56;;;;;;;2.17;2.00;;;30.10;45.90;;;;;;4945121;28;20440;-67
2023/03/18 09:56:34;;;;;;;1.63;1.53;;;30.40;45.90;;;;;;4936274;29;20395;-68
2023/03/18 09:59:02;;;;;;;2.30;2.10;;;30.10;45.40;;;;;;4936937;29;20380;-69
2023/03/18 10:01:30;;;;;;;2.40;1.57;;;29.80;45.50;;;;;;4949193;29;20403;-68
2023/03/18 10:04:06;;;;;;;1.90;1.80;;;28.80;46.50;;;;;;4954454;28;20511;-68
2023/03/18 10:06:32;;;;;;;2.47;2.30;;;28.40;47.20;;;;;;4955041;28;20406;-68
2023/03/18 10:09:24;;;;;;;1.97;1.70;;;28.30;47.10;;;;;;4954958;28;20420;-69
2023/03/18 10:11:52;;;;;;;1.37;1.27;;;28.20;47.00;;;;;;4936120;29;20955;-63
2023/03/18 10:14:36;;;;;;;1.70;1.60;;;28.00;46.80;;;;;;4938005;29;20429;-65
2023/03/18 10:17:24;;;;;;;3.27;1.20;;;28.30;46.30;;;;;;4955456;28;20398;-64
2023/03/18 10:19:54;;;;;;;1.57;1.47;;;28.20;46.70;;;;;;4954280;28;20430;-65
2023/03/18 10:22:39;;;;;;;4.30;1.47;;;28.40;46.30;;;;;;4958487;28;20822;-68
2023/03/18 10:25:27;;;;;;;2.00;1.40;;;28.80;46.30;;;;;;4957576;28;20402;-70
2023/03/18 10:28:36;;;;;;;2.17;1.40;;;28.70;45.90;;;;;;4951497;28;20424;-69
2023/03/18 10:31:25;;;;;;;1.83;1.57;;;28.30;45.90;;;;;;4940255;29;20439;-69
2023/03/18 10:34:00;;;;;;;1.80;1.70;;;28.20;46.30;;;;;;4953317;29;20426;-70
2023/03/18 10:36:48;;;;;;;1.47;1.37;;;28.30;46.10;;;;;;4957991;28;20451;-69
2023/03/18 10:39:19;;;;;;;1.60;1.50;;;28.20;46.30;;;;;;4958142;28;20798;-68
2023/03/18 10:41:50;;;;;;;2.13;1.47;;;28.00;46.40;;;;;;4957962;28;20423;-68
2023/03/18 10:44:29;;;;;;;1.10;1.10;;;27.80;46.10;;;;;;4954173;28;20773;-69
2023/03/18 10:47:12;;;;;;;1.10;1.00;;;27.40;46.70;;;;;;4958250;28;20902;-69
2023/03/18 10:49:43;;;;;;;1.80;1.10;;;27.20;46.50;;;;;;4955221;28;20516;-68
2023/03/18 10:52:38;;;;;;;1.30;1.20;;;27.10;46.80;;;;;;4958094;28;20407;-70
2023/03/18 10:55:14;;;;;;;1.30;1.30;;;27.00;47.50;;;;;;4954268;29;20423;-67
2023/03/18 10:57:40;;;;;;;2.47;1.20;;;26.70;47.40;;;;;;4955641;29;20466;-63
2023/03/18 11:00:33;;;;;;;1.47;1.37;;;26.50;47.50;;;;;;4957292;28;20412;-65
2023/03/18 11:03:00;;;;;;;1.23;1.23;;;26.30;47.50;;;;;;4957302;29;20181;-67
2023/03/18 11:05:32;;;;;;;1.13;1.03;;;26.10;48.00;;;;;;4957696;28;20455;-68
2023/03/18 11:08:04;;;;;;;1.03;1.03;;;25.70;48.00;;;;;;4956011;29;20428;-70
2023/03/18 11:10:36;;;;;;;1.87;1.77;;;25.30;48.40;;;;;;4957432;28;20491;-69
2023/03/18 11:13:02;;;;;;;1.30;1.20;;;25.10;49.00;;;;;;4957206;28;20428;-69
2023/03/18 11:15:33;;;;;;;1.27;1.20;;;24.80;49.20;;;;;;4950591;28;20934;-67
2023/03/18 11:18:01;;;;;;;0.87;0.87;;;24.70;49.80;;;;;;4956775;28;20422;-70
2023/03/18 11:20:46;;;;;;;0.97;0.97;;;24.60;50.40;;;;;;4957278;28;20934;-66
2023/03/18 11:23:45;;;;;;;1.20;1.10;;;24.30;50.00;;;;;;4956416;28;20913;-68
2023/03/18 11:26:22;;;;;;;1.77;1.40;;;23.70;50.30;;;;;;4957606;28;20481;-68
2023/03/18 11:28:47;;;;;;;1.10;0.90;;;23.30;50.80;;;;;;4957002;28;20405;-69
2023/03/18 11:31:20;;;;;;;1.30;0.90;;;22.90;51.10;;;;;;4952614;28;20808;-68
2023/03/18 11:33:45;;;;;;;1.40;1.10;;;22.40;51.00;;;;;;4955971;28;20197;-68
2023/03/18 11:36:17;;;;;;;1.00;1.00;;;22.10;51.40;;;;;;4957213;28;20451;-68
2023/03/18 11:38:54;;;;;;;1.40;1.30;;;21.70;52.00;;;;;;4944760;29;20175;-69
2023/03/18 11:41:26;;;;;;;1.23;1.13;;;21.40;52.00;;;;;;4956415;28;20518;-68
2023/03/18 11:44:00;;;;;;;2.10;1.30;;;21.00;52.50;;;;;;4954917;29;21006;-68
2023/03/18 11:46:46;;;;;;;0.90;0.90;;;20.80;52.50;;;;;;4955754;28;20439;-69
2023/03/18 11:49:15;;;;;;;1.63;1.03;;;20.40;53.40;;;;;;4957015;28;20420;-70
2023/03/18 11:51:52;;;;;;;0.80;0.80;;;20.30;52.90;;;;;;4956828;29;20456;-69
2023/03/18 11:54:26;;;;;;;2.83;0.97;;;20.10;53.10;;;;;;4956301;28;20503;-69
2023/03/18 11:56:58;;;;;;;1.27;1.13;;;19.80;53.20;;;;;;4955045;29;20785;-73
2023/03/18 11:59:57;;;;;;;1.60;1.10;;;19.70;53.20;;;;;;4946173;29;20786;-69
2023/03/18 12:02:35;;;;;;;0.83;0.83;;;19.60;52.50;;;;;;4956802;28;20949;-68
2023/03/18 12:05:15;;;;;;;1.00;1.00;;;19.50;53.50;;;;;;4956277;28;20440;-69
2023/03/18 12:08:09;;;;;;;1.03;1.03;;;19.50;52.60;;;;;;4957260;28;20961;-69
2023/03/18 12:10:40;;;;;;;1.57;1.10;;;19.40;54.20;;;;;;4956614;28;20527;-68
2023/03/18 12:13:36;;;;;;;1.20;1.10;;;19.50;53.00;;;;;;4955594;28;20417;-69
2023/03/18 12:16:38;;;;;;;0.80;0.80;;;19.60;53.70;;;;;;4957123;28;20409;-68
2023/03/18 12:19:10;;;;;;;0.80;0.80;;;19.70;54.00;;;;;;4956845;28;20434;-69
2023/03/18 12:21:50;;;;;;;0.80;0.80;;;19.70;53.60;;;;;;4956938;28;20917;-68
2023/03/18 12:24:57;;;;;;;2.80;1.00;;;19.70;53.10;;;;;;4956306;28;20771;-68
2023/03/18 12:27:43;;;;;;;1.00;1.00;;;19.60;52.90;;;;;;4956748;28;20407;-68
2023/03/18 12:30:35;;;;;;;0.90;0.90;;;19.60;52.70;;;;;;4956775;28;20480;-69
2023/03/18 12:33:27;;;;;;;1.47;0.80;;;19.50;52.70;;;;;;4955117;28;20596;-68
2023/03/18 12:36:34;;;;;;;1.73;1.10;;;19.50;52.80;;;;;;4955489;28;20433;-69
2023/03/18 12:39:20;;;;;;;1.40;0.77;;;19.40;53.50;;;;;;4934999;29;20488;-68
2023/03/18 12:41:48;;;;;;;1.00;1.00;;;19.40;54.90;;;;;;4934529;29;20425;-68
2023/03/18 12:44:17;;;;;;;1.33;1.23;;;19.50;54.30;;;;;;4918912;29;20470;-68
2023/03/18 12:46:58;;;;;;;5.13;1.30;;;19.50;53.80;;;;;;4935285;29;20422;-69
2023/03/18 12:49:51;;;;;;;1.30;0.80;;;19.60;54.60;;;;;;4935000;29;20426;-68
2023/03/18 12:52:40;;;;;;;0.90;0.90;;;19.70;53.10;;;;;;4929370;29;20755;-69
2023/03/18 12:55:22;;;;;;;1.13;1.13;;;19.70;52.60;;;;;;4934154;29;20936;-68
2023/03/18 12:57:54;;;;;;;1.40;0.90;;;19.70;53.10;;;;;;4934683;29;20428;-67
2023/03/18 13:00:32;;;;;;;1.13;1.03;;;19.80;54.60;;;;;;4934605;29;20420;-69
2023/03/18 13:03:04;;;;;;;3.43;1.23;;;19.90;54.00;;;;;;4934376;29;20870;-68
2023/03/18 13:05:57;;;;;;;0.70;0.70;;;20.00;54.00;;;;;;4934738;29;20452;-69
2023/03/18 13:08:47;;;;;;;1.23;1.07;;;20.10;54.40;;;;;;4934654;29;20465;-67
2023/03/18 13:11:54;;;;;;;1.30;1.20;;;20.10;53.80;;;;;;4934903;29;20878;-69
2023/03/18 13:14:22;;;;;;;0.93;0.90;;;20.20;52.60;;;;;;4937302;29;20795;-68
2023/03/18 13:16:49;;;;;;;4.40;1.53;;;20.20;53.90;;;;;;4956105;28;20847;-69
2023/03/18 13:19:17;;;;;;;1.13;1.03;;;20.30;53.80;;;;;;4954777;28;20564;-69
2023/03/18 13:21:47;;;;;;;1.03;0.90;;;20.30;52.70;;;;;;4955757;28;20451;-68
2023/03/18 13:24:25;;;;;;;1.67;0.60;;;20.30;52.10;;;;;;4955385;28;20950;-68
2023/03/18 13:27:19;;;;;;;3.00;1.10;;;20.30;52.50;;;;;;4955979;28;20411;-69
2023/03/18 13:30:02;;;;;;;1.03;0.70;;;20.30;52.60;;;;;;4955339;28;20510;-69
2023/03/18 13:33:12;;;;;;;1.17;0.97;;;20.30;52.50;;;;;;4955865;28;20420;-68
2023/03/18 13:35:50;;;;;;;1.07;1.07;;;20.30;52.30;;;;;;4955545;28;20503;-69
2023/03/18 13:38:30;;;;;;;1.30;1.20;;;20.30;51.90;;;;;;4955427;28;20424;-68
2023/03/18 13:41:24;;;;;;;2.50;1.30;;;20.30;53.10;;;;;;4955660;28;20483;-68
2023/03/18 13:43:52;;;;;;;2.13;1.30;;;20.40;52.50;;;;;;4955250;28;20537;-68
2023/03/18 13:46:28;;;;;;;0.70;0.70;;;20.40;52.20;;;;;;4955369;28;20399;-68
2023/03/18 13:49:00;;;;;;;1.00;0.90;;;20.50;52.60;;;;;;4954960;28;20424;-69
2023/03/18 13:51:28;;;;;;;0.90;0.90;;;20.50;51.60;;;;;;4954917;28;20461;-69
2023/03/18 13:53:58;;;;;;;2.00;0.70;;;20.50;52.10;;;;;;4955235;28;20416;-69
2023/03/18 13:56:41;;;;;;;1.43;0.80;;;20.50;51.40;;;;;;4953946;28;20416;-68
2023/03/18 13:59:32;;;;;;;1.47;0.90;;;20.40;51.60;;;;;;4955122;28;20949;-69
2023/03/18 14:02:32;;;;;;;0.97;0.90;;;20.40;53.00;;;;;;4955013;28;20435;-69
2023/03/18 14:04:58;;;;;;;2.93;2.60;;;20.40;53.10;;;;;;4935832;29;20448;-68
2023/03/18 14:07:27;;;;;;;3.67;2.27;;;20.50;52.70;;;;;;4936296;29;20405;-70
2023/03/18 14:09:58;;;;;;;3.87;3.57;;;20.60;52.70;;;;;;4952772;29;20459;-68
2023/03/18 14:12:31;;;;;;;1.80;1.70;;;20.70;52.80;;;;;;4953990;28;20402;-68
2023/03/18 14:15:08;;;;;;;1.90;1.20;;;20.90;51.40;;;;;;4954863;28;20432;-69
2023/03/18 14:17:38;;;;;;;1.27;1.17;;;20.90;50.80;;;;;;4954936;28;20499;-69
2023/03/18 14:20:17;;;;;;;0.87;0.77;;;20.90;50.20;;;;;;4953782;28;20776;-68
2023/03/18 14:23:18;;;;;;;1.67;0.90;;;20.90;49.60;;;;;;4955016;28;20954;-69
2023/03/18 14:25:53;;;;;;;0.90;0.90;;;20.80;49.40;;;;;;4946096;28;20535;-68
2023/03/18 14:28:22;;;;;;;0.80;0.80;;;20.80;50.10;;;;;;4953449;28;20420;-69
2023/03/18 14:31:13;;;;;;;0.80;0.80;;;20.80;49.80;;;;;;4953435;29;20468;-68
2023/03/18 14:33:52;;;;;;;1.00;1.00;;;20.80;49.30;;;;;;4954587;28;20405;-68
2023/03/18 14:36:46;;;;;;;1.60;0.80;;;20.80;50.10;;;;;;4954774;28;20503;-69
2023/03/18 14:39:37;;;;;;;0.80;0.80;;;20.80;50.60;;;;;;4954776;28;20425;-68
2023/03/18 14:42:12;;;;;;;0.90;0.90;;;20.80;49.60;;;;;;4951912;29;20395;-68
2023/03/18 14:44:52;;;;;;;1.93;1.83;;;20.80;49.30;;;;;;4954720;28;20507;-69
2023/03/18 14:47:40;;;;;;;1.73;1.50;;;20.80;50.50;;;;;;4954800;28;20948;-68
2023/03/18 14:50:35;;;;;;;1.57;1.40;;;20.80;51.10;;;;;;4951140;28;20428;-69
2023/03/18 14:53:07;;;;;;;1.93;1.70;;;20.80;50.40;;;;;;4950804;28;20431;-69
2023/03/18 14:55:35;;;;;;;1.70;1.60;;;20.90;50.90;;;;;;4954013;28;20441;-70
2023/03/18 14:58:01;;;;;;;2.07;1.93;;;20.90;50.60;;;;;;4954997;28;20435;-67
2023/03/18 15:00:32;;;;;;;1.23;1.13;;;21.00;50.50;;;;;;4952535;28;20428;-71
2023/03/18 15:03:05;;;;;;;2.07;1.33;;;21.00;50.60;;;;;;4954186;28;20838;-69
2023/03/18 15:05:42;;;;;;;1.33;1.33;;;21.10;51.00;;;;;;4956574;29;20463;-69
2023/03/18 15:08:14;;;;;;;0.87;0.87;;;21.10;50.40;;;;;;4958108;28;20509;-69
2023/03/18 15:10:41;;;;;;;1.20;1.10;;;21.00;49.70;;;;;;4958354;28;20486;-68
2023/03/18 15:13:12;;;;;;;1.50;1.00;;;21.00;49.90;;;;;;4957298;28;20915;-69
2023/03/18 15:15:38;;;;;;;2.10;0.80;;;21.00;50.10;;;;;;4958025;28;20468;-68
2023/03/18 15:18:17;;;;;;;1.67;1.57;;;20.90;50.20;;;;;;4958098;28;20413;-69
2023/03/18 15:20:46;;;;;;;2.43;1.50;;;20.80;50.10;;;;;;4958129;28;20488;-67
2023/03/18 15:23:13;;;;;;;1.87;1.73;;;20.70;49.70;;;;;;4957600;28;20427;-67
2023/03/18 15:25:43;;;;;;;4.20;3.30;;;20.60;50.50;;;;;;4958000;28;20444;-68
2023/03/18 15:28:20;;;;;;;1.63;1.53;;;20.60;51.00;;;;;;4957643;28;20511;-68
2023/03/18 15:30:55;;;;;;;1.23;1.17;;;20.50;50.80;;;;;;4938687;29;20479;-68
2023/03/18 15:33:23;;;;;;;1.50;1.33;;;20.50;50.60;;;;;;4938335;29;20779;-68
2023/03/18 15:36:01;;;;;;;1.70;1.43;;;20.40;49.80;;;;;;4938623;29;20916;-68
2023/03/18 15:38:29;;;;;;;1.93;1.73;;;20.30;50.30;;;;;;4949945;29;20453;-68
2023/03/18 15:41:06;;;;;;;1.60;1.30;;;20.10;50.30;;;;;;4957827;28;20456;-67
2023/03/18 15:43:43;;;;;;;2.13;1.43;;;20.10;50.60;;;;;;4957155;28;20428;-68
2023/03/18 15:46:35;;;;;;;1.67;1.50;;;20.00;50.50;;;;;;4957554;28;20420;-69
2023/03/18 15:49:02;;;;;;;6.30;1.77;;;20.00;50.30;;;;;;4956406;29;20428;-68
2023/03/18 15:51:40;;;;;;;2.07;1.17;;;19.90;50.50;;;;;;4957289;28;20463;-68
2023/03/18 15:54:27;;;;;;;2.00;1.07;;;19.90;54.20;;;;;;4957052;28;20439;-69
2023/03/18 15:56:55;;;;;;;1.40;1.30;;;19.80;55.30;;;;;;4957631;28;20412;-69
2023/03/18 15:59:27;;;;;;;1.40;1.30;;;19.70;57.70;;;;;;4957033;28;20436;-69
2023/03/18 16:01:57;;;;;;;2.13;1.37;;;19.60;59.20;;;;;;4957408;28;20428;-68
2023/03/18 16:04:24;;;;;;;1.83;1.43;;;19.50;60.20;;;;;;4956541;28;20615;-69
2023/03/18 16:06:51;;;;;;;2.67;1.83;;;19.40;63.30;;;;;;4956668;28;20428;-67
2023/03/18 16:09:21;;;;;;;3.60;2.93;;;19.30;63.20;;;;;;4951286;28;20853;-69
2023/03/18 16:12:15;;;;;;;3.37;2.50;;;19.20;64.90;;;;;;4938045;29;20461;-68
2023/03/18 16:14:42;;;;;;;1.60;1.50;;;19.00;66.50;;;;;;4954871;28;20857;-68
2023/03/18 16:17:16;;;;;;;1.80;1.70;;;18.90;67.20;;;;;;4957163;28;20419;-67
2023/03/18 16:19:44;;;;;;;2.03;1.83;;;18.80;68.70;;;;;;4957430;28;20425;-67
2023/03/18 16:22:11;;;;;;;2.33;2.20;;;18.60;69.50;;;;;;4957384;28;20435;-68
2023/03/18 16:24:37;;;;;;;2.43;1.80;;;18.50;71.30;;;;;;4956324;28;20440;-67
2023/03/18 16:27:04;;;;;;;2.47;2.23;;;18.30;71.50;;;;;;4957018;28;20420;-70
2023/03/18 16:29:32;;;;;;;4.27;1.73;;;18.20;72.40;;;;;;4956496;28;20428;-67
2023/03/18 16:31:58;;;;;;;1.97;1.80;;;18.00;73.20;;;;;;4956841;28;20479;-68
2023/03/18 16:34:24;;;;;;;3.07;1.60;;;17.90;73.60;;;;;;4956330;28;20441;-68
2023/03/18 16:36:50;;;;;;;4.33;2.27;;;17.80;74.30;;;;;;4956826;28;20425;-68
2023/03/18 16:39:32;;;;;;;6.40;2.00;;;17.70;75.00;;;;;;4956197;28;20173;-68
2023/03/18 16:42:05;;;;;;;2.60;2.07;;;17.60;75.20;;;;;;4955002;28;20430;-72
2023/03/18 16:44:33;;;;;;;2.00;1.90;;;17.50;76.10;;;;;;4954248;28;20968;-69
2023/03/18 16:47:01;;;;;;;2.37;1.60;;;17.40;76.50;;;;;;4956317;28;20425;-70
2023/03/18 16:49:32;;;;;;;2.50;2.00;;;17.30;76.90;;;;;;4956213;28;20485;-68
2023/03/18 16:52:00;;;;;;;5.20;4.43;;;17.20;77.20;;;;;;4953647;28;20463;-70
2023/03/18 16:54:30;;;;;;;4.70;3.30;;;17.20;77.90;;;;;;4951917;28;20458;-68
2023/03/18 16:57:01;;;;;;;2.93;1.93;;;17.10;77.80;;;;;;4945986;29;20429;-67
2023/03/18 16:59:36;;;;;;;2.10;2.00;;;17.10;77.90;;;;;;4956256;28;20477;-67
2023/03/18 17:02:02;;;;;;;1.80;1.40;;;16.90;78.70;;;;;;4956203;28;20422;-69
2023/03/18 17:04:33;;;;;;;5.10;2.07;;;16.80;79.50;;;;;;4955591;28;20433;-68
2023/03/18 17:07:02;;;;;;;2.50;2.07;;;16.70;80.00;;;;;;4955697;28;20857;-68
2023/03/18 17:09:28;;;;;;;3.00;2.43;;;16.60;80.30;;;;;;4936831;29;20423;-68
2023/03/18 17:11:57;;;;;;;2.30;2.10;;;16.50;80.30;;;;;;4951603;29;20448;-68
2023/03/18 17:14:33;;;;;;;2.30;2.10;;;16.40;80.60;;;;;;4955401;28;20249;-67
2023/03/18 17:17:01;;;;;;;2.33;2.13;;;16.40;81.60;;;;;;4953945;28;20506;-67
2023/03/18 17:19:27;;;;;;;2.23;2.03;;;16.30;81.60;;;;;;4934629;29;20438;-68
2023/03/18 17:21:53;;;;;;;4.53;3.20;;;16.20;81.80;;;;;;4934801;29;20411;-70
2023/03/18 17:24:20;;;;;;;5.80;3.93;;;16.10;82.10;;;;;;4945814;29;20445;-69
2023/03/18 17:26:47;;;;;;;4.00;3.70;;;16.10;82.70;;;;;;4950554;28;20439;-69
2023/03/18 17:29:33;;;;;;;4.30;3.83;;;15.90;83.10;;;;;;4955651;28;20604;-68
2023/03/18 17:31:59;;;;;;;3.33;2.90;;;15.90;84.30;;;;;;4953041;29;20460;-68
2023/03/18 17:34:24;;;;;;;4.57;3.60;;;15.70;84.80;;;;;;4955107;28;20479;-68
2023/03/18 17:36:50;;;;;;;3.73;3.07;;;15.60;85.80;;;;;;4955651;28;20618;-67
2023/03/18 17:39:16;;;;;;;3.43;3.13;;;15.50;85.60;;;;;;4955253;28;20228;-68
2023/03/18 17:41:42;;;;;;;15.20;6.33;;;15.40;85.60;;;;;;4955331;28;20907;-68
2023/03/18 17:44:33;;;;;;;7.30;5.20;;;15.30;85.90;;;;;;4954630;29;20197;-69
2023/03/18 17:46:59;;;;;;;4.47;3.73;;;15.30;86.30;;;;;;4954001;28;20290;-68
2023/03/18 17:49:26;;;;;;;3.30;3.00;;;15.20;86.50;;;;;;4954890;28;20499;-69
2023/03/18 17:51:54;;;;;;;3.10;2.40;;;15.10;86.20;;;;;;4955078;28;20825;-67
2023/03/18 17:54:23;;;;;;;2.87;2.43;;;15.00;85.90;;;;;;4954437;28;20444;-67
2023/03/18 17:56:50;;;;;;;3.10;2.80;;;14.90;86.10;;;;;;4954529;28;20404;-68
2023/03/18 17:59:18;;;;;;;3.03;2.47;;;14.90;86.50;;;;;;4954875;28;20407;-66
2023/03/18 18:01:46;;;;;;;7.90;2.80;;;14.80;87.00;;;;;;4955144;29;20491;-68
2023/03/18 18:04:21;;;;;;;3.30;2.40;;;14.80;87.30;;;;;;4954358;28;20459;-68
2023/03/18 18:06:47;;;;;;;3.00;2.80;;;14.70;87.20;;;;;;4954506;28;20458;-69
2023/03/18 18:09:14;;;;;;;2.53;2.27;;;14.60;87.10;;;;;;4954584;28;20428;-69
2023/03/18 18:11:45;;;;;;;3.90;3.30;;;14.50;87.10;;;;;;4955078;28;20816;-68
2023/03/18 18:14:17;;;;;;;11.90;6.03;;;14.50;87.40;;;;;;4953208;28;20443;-67
2023/03/18 18:16:42;;;;;;;31.33;11.17;;;14.40;87.60;;;;;;4954957;28;20949;-67
2023/03/18 18:19:10;;;;;;;32.87;11.17;;;14.40;87.90;;;;;;4954946;29;20408;-67